Time;durP1;ratioP1;P1;durP2;ratioP2;P2;SDS_P1;SDS_P2;PMS_P1;PMS_P2;Temp;Humidity;BMP_temperature;BMP_pressure;BME280_temperature;BME280_humidity;BME280_pressure;Samples;Min_cycle;Max_cycle;Signal;HPM_P1;HPM_P2
2022/08/03 00:01:30;;;;;;;4.20;1.50;;;20.00;1.00;;;;;;5112119;28;20255;-64
2022/08/03 00:03:57;;;;;;;2.80;1.60;;;20.00;1.00;;;;;;5112989;28;20674;-64
2022/08/03 00:06:24;;;;;;;5.53;2.00;;;20.00;1.00;;;;;;5112416;28;20685;-63
2022/08/03 00:08:50;;;;;;;2.93;1.70;;;20.00;1.00;;;;;;5112748;28;20204;-64
2022/08/03 00:11:17;;;;;;;2.87;1.77;;;19.90;1.00;;;;;;5112814;28;20223;-64
2022/08/03 00:13:45;;;;;;;6.90;2.13;;;19.90;1.00;;;;;;5112483;28;20243;-63
2022/08/03 00:16:12;;;;;;;4.50;1.90;;;19.90;1.00;;;;;;5112265;28;20268;-64
2022/08/03 00:18:39;;;;;;;4.03;1.90;;;19.90;1.00;;;;;;5112693;28;20215;-64
2022/08/03 00:21:06;;;;;;;2.73;1.60;;;19.90;1.00;;;;;;5112384;28;20227;-64
2022/08/03 00:23:33;;;;;;;4.73;1.93;;;19.90;1.00;;;;;;5112757;28;20276;-64
2022/08/03 00:26:00;;;;;;;4.07;1.87;;;19.90;11.90;;;;;;5112293;28;20203;-64
2022/08/03 00:28:26;;;;;;;4.03;1.90;;;19.80;33.70;;;;;;5112582;28;20265;-63
2022/08/03 00:30:55;;;;;;;2.03;1.70;;;19.80;59.50;;;;;;5112507;28;20233;-64
2022/08/03 00:33:22;;;;;;;6.13;1.90;;;19.80;93.70;;;;;;5112277;28;20203;-64
2022/08/03 00:35:49;;;;;;;3.37;1.90;;;19.80;99.80;;;;;;5112117;28;20207;-65
2022/08/03 00:38:16;;;;;;;2.63;1.33;;;19.80;86.00;;;;;;5112282;28;20260;-65
2022/08/03 00:40:42;;;;;;;3.13;1.60;;;19.80;86.00;;;;;;5112374;28;20224;-65
2022/08/03 00:43:09;;;;;;;3.13;1.97;;;19.80;83.00;;;;;;5112220;28;20709;-65
2022/08/03 00:45:39;;;;;;;2.67;1.37;;;19.80;78.50;;;;;;5112278;28;20596;-64
2022/08/03 00:48:10;;;;;;;3.70;1.63;;;19.80;70.50;;;;;;5112155;28;20237;-64
2022/08/03 00:50:40;;;;;;;3.07;1.50;;;19.80;46.50;;;;;;5112189;28;20292;-64
2022/08/03 00:53:09;;;;;;;2.07;1.70;;;19.80;41.20;;;;;;5112531;28;20625;-64
2022/08/03 00:55:36;;;;;;;3.30;1.50;;;19.80;20.60;;;;;;5112351;28;20217;-63
2022/08/03 00:58:05;;;;;;;3.93;1.57;;;19.70;23.70;;;;;;5112007;28;20336;-64
2022/08/03 01:00:34;;;;;;;3.23;1.90;;;19.70;10.30;;;;;;5111995;28;20314;-64
2022/08/03 01:03:01;;;;;;;4.53;1.60;;;19.70;10.00;;;;;;5111805;28;20728;-64
2022/08/03 01:05:30;;;;;;;3.63;1.50;;;19.70;1.00;;;;;;5112466;28;20260;-64
2022/08/03 01:08:05;;;;;;;5.13;1.30;;;19.70;1.00;;;;;;5111838;28;20252;-64
2022/08/03 01:10:38;;;;;;;4.60;1.50;;;19.80;1.00;;;;;;5112214;28;20223;-63
2022/08/03 01:13:15;;;;;;;4.47;1.43;;;19.80;1.00;;;;;;5114620;28;20291;-64
2022/08/03 01:15:52;;;;;;;3.30;1.50;;;19.80;1.00;;;;;;5116514;28;20599;-64
2022/08/03 01:18:26;;;;;;;2.67;1.70;;;19.80;1.00;;;;;;5116005;28;20207;-64
2022/08/03 01:20:57;;;;;;;3.93;1.60;;;19.80;1.00;;;;;;5116036;28;20222;-64
2022/08/03 01:23:54;;;;;;;3.13;1.40;;;19.80;1.00;;;;;;5115871;28;20220;-64
2022/08/03 01:27:09;;;;;;;2.03;1.53;;;19.80;1.00;;;;;;5115811;27;20200;-64
2022/08/03 01:29:58;;;;;;;4.00;1.30;;;19.90;1.00;;;;;;5095183;28;20207;-63
2022/08/03 01:32:33;;;;;;;2.33;1.70;;;19.80;1.00;;;;;;5116003;28;20207;-64
2022/08/03 01:35:04;;;;;;;3.53;1.50;;;19.90;1.00;;;;;;5115811;28;20199;-64
2022/08/03 01:37:38;;;;;;;4.67;1.70;;;19.90;1.00;;;;;;5115380;27;20229;-64
2022/08/03 01:40:06;;;;;;;6.60;1.70;;;20.00;1.00;;;;;;5115319;28;20223;-64
2022/08/03 01:42:34;;;;;;;2.80;1.27;;;20.00;1.00;;;;;;5115422;28;20231;-64
2022/08/03 01:45:05;;;;;;;4.73;1.60;;;20.00;1.00;;;;;;5115710;28;20203;-64
2022/08/03 01:47:32;;;;;;;4.03;1.77;;;20.00;1.00;;;;;;5115452;28;20199;-64
2022/08/03 01:50:01;;;;;;;1.73;1.30;;;20.00;1.00;;;;;;5115417;28;20204;-64
2022/08/03 01:52:29;;;;;;;3.87;1.53;;;20.00;1.00;;;;;;5115514;27;20200;-63
2022/08/03 01:54:58;;;;;;;7.30;1.53;;;20.00;1.00;;;;;;5115140;28;20276;-63
2022/08/03 01:57:27;;;;;;;2.43;1.70;;;20.00;1.00;;;;;;5115273;28;20809;-64
2022/08/03 01:59:57;;;;;;;2.73;1.43;;;19.90;1.00;;;;;;5115374;28;20203;-64
2022/08/03 02:02:26;;;;;;;3.43;1.73;;;19.90;1.00;;;;;;5115254;27;20269;-64
2022/08/03 02:04:55;;;;;;;6.30;1.87;;;19.90;1.00;;;;;;5113691;28;20253;-64
2022/08/03 02:07:23;;;;;;;3.67;1.87;;;19.80;1.00;;;;;;5114806;27;20211;-65
2022/08/03 02:09:52;;;;;;;5.23;2.20;;;19.80;1.00;;;;;;5114997;28;20212;-64
2022/08/03 02:12:20;;;;;;;4.50;1.70;;;19.80;1.00;;;;;;5114944;28;20754;-63
2022/08/03 02:14:49;;;;;;;5.67;2.07;;;19.80;1.00;;;;;;5115134;28;20207;-64
2022/08/03 02:17:16;;;;;;;7.43;2.20;;;19.80;1.00;;;;;;5114722;28;20203;-63
2022/08/03 02:19:45;;;;;;;4.47;2.33;;;19.80;1.00;;;;;;5114581;28;20211;-63
2022/08/03 02:22:13;;;;;;;3.50;1.77;;;19.70;1.00;;;;;;5114970;28;20269;-64
2022/08/03 02:24:41;;;;;;;4.77;2.30;;;19.80;1.00;;;;;;5113850;28;20204;-63
2022/08/03 02:27:14;;;;;;;5.43;2.00;;;19.80;1.00;;;;;;5114535;28;20280;-64
2022/08/03 02:29:44;;;;;;;4.07;1.90;;;19.80;1.00;;;;;;5114699;28;20208;-64
2022/08/03 02:32:14;;;;;;;7.73;2.30;;;19.80;1.00;;;;;;5114622;28;20196;-64
2022/08/03 02:34:45;;;;;;;4.10;1.70;;;19.80;1.00;;;;;;5114591;27;20237;-64
2022/08/03 02:37:14;;;;;;;3.23;1.87;;;19.70;1.00;;;;;;5114481;27;20204;-64
2022/08/03 02:39:42;;;;;;;4.00;2.20;;;19.80;1.00;;;;;;5114570;28;20284;-64
2022/08/03 02:42:10;;;;;;;7.93;1.97;;;19.70;1.00;;;;;;5114537;28;20312;-64
2022/08/03 02:44:38;;;;;;;2.57;1.80;;;19.70;1.00;;;;;;5114496;28;20204;-64
2022/08/03 02:47:10;;;;;;;5.77;1.70;;;19.70;1.00;;;;;;5113867;28;20264;-64
2022/08/03 02:49:39;;;;;;;3.60;1.93;;;19.70;1.00;;;;;;5114545;27;20211;-64
2022/08/03 02:52:10;;;;;;;2.70;1.93;;;19.70;1.00;;;;;;5114254;28;20275;-63
2022/08/03 02:54:38;;;;;;;4.40;2.00;;;19.70;1.00;;;;;;5114157;28;20298;-65
2022/08/03 02:57:07;;;;;;;2.80;1.93;;;19.60;1.00;;;;;;5113953;28;20207;-64
2022/08/03 02:59:36;;;;;;;4.33;2.10;;;19.60;1.00;;;;;;5114143;27;20269;-64
2022/08/03 03:02:03;;;;;;;2.50;1.90;;;19.60;1.00;;;;;;5113987;28;20228;-64
2022/08/03 03:04:31;;;;;;;3.10;1.87;;;19.60;1.00;;;;;;5114222;28;20252;-63
2022/08/03 03:06:58;;;;;;;5.07;2.00;;;19.60;1.00;;;;;;5113685;28;20215;-65
2022/08/03 03:09:27;;;;;;;3.83;2.07;;;19.60;1.00;;;;;;5114169;28;20260;-64
2022/08/03 03:11:54;;;;;;;6.40;2.37;;;19.70;1.00;;;;;;5113716;28;20647;-64
2022/08/03 03:14:22;;;;;;;3.73;1.90;;;19.60;1.00;;;;;;5113853;28;20207;-64
2022/08/03 03:16:49;;;;;;;5.40;2.27;;;19.70;1.00;;;;;;5113504;28;20261;-63
2022/08/03 03:19:18;;;;;;;2.40;1.90;;;19.70;1.00;;;;;;5113908;28;20264;-64
2022/08/03 03:21:45;;;;;;;3.10;2.00;;;19.70;1.00;;;;;;5114016;28;20570;-64
2022/08/03 03:24:12;;;;;;;2.43;2.00;;;19.70;1.00;;;;;;5113756;28;20288;-64
2022/08/03 03:26:40;;;;;;;3.57;1.67;;;19.70;1.00;;;;;;5113204;28;20253;-63
2022/08/03 03:29:08;;;;;;;7.70;2.10;;;19.70;1.00;;;;;;5113639;28;20260;-64
2022/08/03 03:31:35;;;;;;;3.70;1.93;;;19.80;1.00;;;;;;5113263;28;20223;-63
2022/08/03 03:34:02;;;;;;;3.10;1.67;;;19.70;1.00;;;;;;5113321;28;20199;-64
2022/08/03 03:36:28;;;;;;;2.93;2.00;;;19.70;1.00;;;;;;5112993;28;20203;-62
2022/08/03 03:38:55;;;;;;;4.63;1.63;;;19.80;1.00;;;;;;5113221;28;20203;-64
2022/08/03 03:41:22;;;;;;;5.37;1.87;;;19.70;1.00;;;;;;5113125;28;20223;-65
2022/08/03 03:43:50;;;;;;;3.77;1.80;;;19.70;1.00;;;;;;5113258;28;20265;-63
2022/08/03 03:46:17;;;;;;;5.60;2.00;;;19.70;1.00;;;;;;5112888;28;20593;-64
2022/08/03 03:48:45;;;;;;;3.50;1.83;;;19.70;1.00;;;;;;5113129;28;20258;-64
2022/08/03 03:51:11;;;;;;;5.27;2.07;;;19.70;1.00;;;;;;5113051;28;20725;-64
2022/08/03 03:53:38;;;;;;;3.90;1.83;;;19.70;1.00;;;;;;5112800;28;20207;-64
2022/08/03 03:56:05;;;;;;;4.40;2.10;;;19.70;1.00;;;;;;5113231;28;20268;-64
2022/08/03 03:58:32;;;;;;;5.07;3.47;;;19.70;1.00;;;;;;5113259;28;20256;-63
2022/08/03 04:01:01;;;;;;;4.17;2.87;;;19.70;1.00;;;;;;5112717;28;20227;-64
2022/08/03 04:03:28;;;;;;;8.80;2.30;;;19.60;1.00;;;;;;5112933;28;20255;-63
2022/08/03 04:11:43;;;;;;;2.43;2.10;;;19.60;1.00;;;;;;5112220;28;20226;-64
2022/08/03 04:14:12;;;;;;;2.97;1.73;;;19.60;1.00;;;;;;5112656;28;20196;-64
2022/08/03 04:16:46;;;;;;;4.10;2.23;;;19.60;1.00;;;;;;5112228;28;20207;-64
2022/08/03 04:19:17;;;;;;;3.47;2.50;;;19.50;1.00;;;;;;5112542;28;20739;-64
2022/08/03 04:21:47;;;;;;;4.77;2.33;;;19.50;1.00;;;;;;5112663;28;20223;-64
2022/08/03 04:24:16;;;;;;;2.93;2.13;;;19.50;1.00;;;;;;5112610;28;20284;-63
2022/08/03 04:26:45;;;;;;;3.40;2.10;;;19.50;1.00;;;;;;5112182;28;20253;-65
2022/08/03 04:29:13;;;;;;;3.20;2.40;;;19.50;1.00;;;;;;5112399;28;20622;-64
2022/08/03 04:31:43;;;;;;;5.33;2.37;;;19.40;5.70;;;;;;5112535;28;20219;-62
2022/08/03 04:34:10;;;;;;;3.10;2.17;;;19.40;20.00;;;;;;5112658;28;20199;-63
2022/08/03 04:36:42;;;;;;;4.50;2.40;;;19.50;54.00;;;;;;5112459;28;20200;-63
2022/08/03 04:39:13;;;;;;;5.43;2.50;;;19.60;43.00;;;;;;5112430;28;20207;-64
2022/08/03 04:41:41;;;;;;;3.47;2.33;;;19.60;4.20;;;;;;5112527;28;20232;-63
2022/08/03 04:44:08;;;;;;;4.43;2.40;;;19.70;1.00;;;;;;5112567;28;20284;-62
2022/08/03 04:46:39;;;;;;;5.40;2.07;;;19.70;1.00;;;;;;5111396;28;20669;-62
2022/08/03 04:49:07;;;;;;;4.03;2.13;;;19.70;1.00;;;;;;5111141;28;20244;-62
2022/08/03 04:51:39;;;;;;;3.30;2.47;;;19.80;1.00;;;;;;5111047;28;20223;-62
2022/08/03 04:54:06;;;;;;;2.87;2.10;;;19.80;1.00;;;;;;5112354;28;20562;-62
2022/08/03 04:56:34;;;;;;;3.97;2.00;;;19.80;1.00;;;;;;5112142;28;20213;-62
2022/08/03 04:59:01;;;;;;;3.60;2.17;;;19.90;1.00;;;;;;5112007;28;20204;-62
2022/08/03 05:01:27;;;;;;;4.60;2.10;;;19.90;1.00;;;;;;5111923;28;20648;-62
2022/08/03 05:03:54;;;;;;;3.50;1.97;;;19.90;1.00;;;;;;5111783;28;20597;-62
2022/08/03 05:06:22;;;;;;;2.67;1.90;;;20.00;1.00;;;;;;5111803;28;20204;-62
2022/08/03 05:08:48;;;;;;;4.07;2.17;;;20.00;1.00;;;;;;5111702;28;20200;-61
2022/08/03 05:11:16;;;;;;;5.00;2.10;;;20.00;1.00;;;;;;5112305;28;20231;-63
2022/08/03 05:13:43;;;;;;;5.03;2.20;;;20.10;1.00;;;;;;5111769;28;20290;-62
2022/08/03 05:16:10;;;;;;;6.50;2.47;;;20.10;1.00;;;;;;5111859;28;20280;-61
2022/08/03 05:18:55;;;;;;;5.77;2.20;;;20.20;1.00;;;;;;5111840;28;20218;-62
2022/08/03 05:21:23;;;;;;;2.93;2.30;;;20.30;1.00;;;;;;5111457;28;20303;-65
2022/08/03 05:23:50;;;;;;;6.47;2.50;;;20.40;1.00;;;;;;5111780;28;20693;-62
2022/08/03 05:26:16;;;;;;;6.73;2.40;;;20.40;1.00;;;;;;5111201;28;20632;-63
2022/08/03 05:28:43;;;;;;;3.70;2.13;;;20.40;1.00;;;;;;5111733;28;20203;-62
2022/08/03 05:31:11;;;;;;;7.53;2.40;;;20.50;1.00;;;;;;5111461;28;20227;-62
2022/08/03 05:33:38;;;;;;;4.67;2.33;;;20.50;1.00;;;;;;5111513;28;20199;-62
2022/08/03 05:36:05;;;;;;;7.27;2.43;;;20.50;1.00;;;;;;5111162;28;20203;-62
2022/08/03 05:38:33;;;;;;;3.53;1.93;;;20.50;1.00;;;;;;5111732;28;20204;-62
2022/08/03 05:41:00;;;;;;;5.60;2.60;;;20.50;1.00;;;;;;5111250;28;20228;-62
2022/08/03 05:43:26;;;;;;;3.73;2.57;;;20.50;1.00;;;;;;5111538;28;20220;-62
2022/08/03 05:45:53;;;;;;;5.87;2.97;;;20.50;1.00;;;;;;5111695;28;20723;-62
2022/08/03 05:48:20;;;;;;;5.00;3.20;;;20.50;1.00;;;;;;5111565;28;20204;-62
2022/08/03 05:50:47;;;;;;;3.33;3.03;;;20.50;1.00;;;;;;5111756;28;20284;-63
2022/08/03 05:53:13;;;;;;;6.40;2.90;;;20.60;1.00;;;;;;5112114;28;20196;-63
2022/08/03 05:55:41;;;;;;;4.47;3.40;;;20.70;1.00;;;;;;5112024;28;20207;-63
2022/08/03 05:58:08;;;;;;;5.03;3.37;;;20.70;1.00;;;;;;5111550;28;20351;-63
2022/08/03 06:00:35;;;;;;;6.00;3.27;;;20.80;1.00;;;;;;5114801;28;20273;-63
2022/08/03 06:03:02;;;;;;;4.83;3.00;;;20.90;1.00;;;;;;5114533;28;20590;-63
2022/08/03 06:05:28;;;;;;;5.83;3.33;;;20.90;1.00;;;;;;5115180;28;20297;-64
2022/08/03 06:07:55;;;;;;;4.80;3.07;;;21.00;1.00;;;;;;5114859;28;20207;-62
2022/08/03 06:10:22;;;;;;;4.77;3.10;;;21.10;1.00;;;;;;5114829;28;20228;-62
2022/08/03 06:12:50;;;;;;;3.53;3.20;;;21.20;99.90;;;;;;5114869;27;20208;-63
2022/08/03 06:15:17;;;;;;;5.90;3.50;;;21.20;99.90;;;;;;5114437;27;20524;-63
2022/08/03 06:17:45;;;;;;;6.63;3.70;;;21.30;99.90;;;;;;5114566;28;20771;-62
2022/08/03 06:20:12;;;;;;;7.70;3.80;;;21.40;99.90;;;;;;5115064;28;20365;-64
2022/08/03 06:22:39;;;;;;;7.40;4.10;;;21.50;99.90;;;;;;5114766;28;20681;-64
2022/08/03 06:25:06;;;;;;;7.03;3.57;;;21.60;99.90;;;;;;5114608;28;20284;-64
2022/08/03 06:27:33;;;;;;;9.43;3.60;;;21.60;99.90;;;;;;5114270;28;20257;-65
2022/08/03 06:30:01;;;;;;;4.70;3.30;;;21.70;99.90;;;;;;5114161;28;20222;-63
2022/08/03 06:32:28;;;;;;;5.53;3.70;;;21.80;99.90;;;;;;5114875;28;20204;-62
2022/08/03 06:34:54;;;;;;;5.53;3.30;;;21.90;99.90;;;;;;5114701;27;20204;-63
2022/08/03 06:37:22;;;;;;;6.40;3.00;;;22.00;99.90;;;;;;5114074;28;20627;-64
2022/08/03 06:39:48;;;;;;;5.10;3.33;;;22.10;99.90;;;;;;5114816;28;20239;-62
2022/08/03 06:42:15;;;;;;;5.13;3.13;;;22.20;99.90;;;;;;5114322;28;20203;-65
2022/08/03 06:44:42;;;;;;;5.03;3.10;;;22.30;99.90;;;;;;5113987;27;20231;-64
2022/08/03 06:47:10;;;;;;;4.40;3.17;;;22.40;99.90;;;;;;5113881;28;20261;-64
2022/08/03 06:49:37;;;;;;;5.20;3.20;;;22.50;99.90;;;;;;5114299;28;20275;-64
2022/08/03 06:52:04;;;;;;;3.30;2.83;;;22.60;99.90;;;;;;5113650;28;20721;-64
2022/08/03 06:54:30;;;;;;;4.43;3.00;;;22.70;99.90;;;;;;5113981;28;20207;-64
2022/08/03 06:56:57;;;;;;;10.47;3.13;;;22.80;99.90;;;;;;5113684;27;20261;-65
2022/08/03 06:59:24;;;;;;;7.10;2.70;;;22.90;99.90;;;;;;5113671;28;20204;-64
2022/08/03 07:01:50;;;;;;;6.77;2.90;;;22.90;99.90;;;;;;5114059;28;20227;-64
2022/08/03 07:04:18;;;;;;;3.90;3.03;;;23.10;99.90;;;;;;5113813;27;20262;-65
2022/08/03 07:06:45;;;;;;;4.77;3.17;;;23.20;99.90;;;;;;5113574;28;20218;-63
2022/08/03 07:09:12;;;;;;;3.97;2.63;;;23.30;99.90;;;;;;5113493;28;20204;-66
2022/08/03 07:11:38;;;;;;;5.80;3.13;;;23.30;99.90;;;;;;5113246;28;20253;-65
2022/08/03 07:14:05;;;;;;;5.30;2.70;;;23.50;99.90;;;;;;5113399;28;20674;-64
2022/08/03 07:16:32;;;;;;;6.97;3.00;;;23.60;99.90;;;;;;5113297;28;20888;-64
2022/08/03 07:18:58;;;;;;;3.63;2.77;;;23.90;99.90;;;;;;5113407;28;20701;-63
2022/08/03 07:21:26;;;;;;;7.83;2.63;;;24.00;99.90;;;;;;5113076;28;20223;-65
2022/08/03 07:23:53;;;;;;;3.67;2.60;;;24.20;99.90;;;;;;5113363;28;20220;-64
2022/08/03 07:26:20;;;;;;;3.20;2.30;;;24.20;99.90;;;;;;5112741;28;20276;-63
2022/08/03 07:28:46;;;;;;;6.20;2.40;;;24.30;99.90;;;;;;5113333;28;20685;-64
2022/08/03 07:31:13;;;;;;;4.53;2.67;;;24.30;99.90;;;;;;5112977;28;20786;-64
2022/08/03 07:33:40;;;;;;;7.27;2.47;;;24.40;99.90;;;;;;5113304;28;20212;-66
2022/08/03 07:36:07;;;;;;;4.43;2.30;;;24.60;99.90;;;;;;5112679;28;20226;-65
2022/08/03 07:38:36;;;;;;;3.83;2.40;;;24.70;99.90;;;;;;5113120;28;20261;-64
2022/08/03 07:41:03;;;;;;;4.07;2.10;;;24.80;99.90;;;;;;5113076;28;20231;-63
2022/08/03 07:43:30;;;;;;;5.43;1.90;;;24.90;99.90;;;;;;5112936;28;20290;-63
2022/08/03 07:45:56;;;;;;;3.47;2.30;;;25.00;99.90;;;;;;5112853;28;20208;-63
2022/08/03 07:48:23;;;;;;;6.57;2.10;;;25.20;99.90;;;;;;5112882;28;20211;-63
2022/08/03 07:50:50;;;;;;;6.20;2.50;;;25.30;99.90;;;;;;5112906;28;20232;-63
2022/08/03 07:53:17;;;;;;;6.40;2.20;;;25.30;99.90;;;;;;5112402;28;20743;-65
2022/08/03 07:55:45;;;;;;;3.93;2.00;;;25.50;99.90;;;;;;5098248;28;20261;-63
2022/08/03 07:58:14;;;;;;;4.97;2.20;;;25.60;99.90;;;;;;5110393;28;20204;-62
2022/08/03 08:00:41;;;;;;;3.57;2.03;;;25.80;99.90;;;;;;5112589;28;20717;-62
2022/08/03 08:03:08;;;;;;;4.33;2.30;;;25.90;99.90;;;;;;5112402;28;20230;-65
2022/08/03 08:05:35;;;;;;;4.60;2.43;;;26.00;99.90;;;;;;5111644;28;20310;-66
2022/08/03 08:08:03;;;;;;;3.30;1.80;;;26.20;99.90;;;;;;5111503;28;20247;-65
2022/08/03 08:10:31;;;;;;;4.53;2.10;;;26.20;99.90;;;;;;5112054;28;20600;-66
2022/08/03 08:12:59;;;;;;;2.10;1.80;;;26.30;99.90;;;;;;5112180;28;20207;-64
2022/08/03 08:15:26;;;;;;;4.43;2.10;;;26.40;99.90;;;;;;5111840;28;20199;-63
2022/08/03 08:17:54;;;;;;;4.93;2.20;;;26.50;99.90;;;;;;5111521;28;20284;-63
2022/08/03 08:20:22;;;;;;;3.07;1.93;;;26.60;99.90;;;;;;5111991;28;20227;-65
2022/08/03 08:22:49;;;;;;;3.00;2.17;;;26.70;99.90;;;;;;5111278;28;20570;-64
2022/08/03 08:25:16;;;;;;;3.50;2.30;;;26.80;99.90;;;;;;5112438;28;20590;-65
2022/08/03 08:27:44;;;;;;;5.10;2.23;;;26.80;99.90;;;;;;5111212;28;20730;-64
2022/08/03 08:30:14;;;;;;;4.27;2.03;;;26.70;99.90;;;;;;5112262;28;20226;-65
2022/08/03 08:32:41;;;;;;;4.33;2.03;;;26.70;99.90;;;;;;5111438;28;20240;-62
2022/08/03 08:35:09;;;;;;;5.50;2.00;;;26.70;99.90;;;;;;5111920;28;20212;-63
2022/08/03 08:37:40;;;;;;;6.10;2.30;;;26.80;99.90;;;;;;5111224;28;20251;-68
2022/08/03 08:40:08;;;;;;;7.93;2.40;;;27.00;99.90;;;;;;5110241;28;20648;-69
2022/08/03 08:42:37;;;;;;;5.23;2.37;;;27.20;99.90;;;;;;5111787;28;20231;-68
2022/08/03 08:45:05;;;;;;;4.03;2.17;;;27.40;99.90;;;;;;5111474;28;20219;-68
2022/08/03 08:47:36;;;;;;;5.17;2.43;;;27.40;99.90;;;;;;5111127;28;20231;-68
2022/08/03 08:50:04;;;;;;;6.97;1.93;;;27.60;99.90;;;;;;5111694;28;20212;-67
2022/08/03 08:52:31;;;;;;;5.73;2.20;;;27.70;99.90;;;;;;5111726;28;20252;-68
2022/08/03 08:55:02;;;;;;;2.33;1.53;;;27.70;99.90;;;;;;5111689;28;20670;-67
2022/08/03 08:57:33;;;;;;;2.70;1.80;;;27.90;99.90;;;;;;5111010;28;20204;-68
2022/08/03 09:00:02;;;;;;;3.07;1.83;;;28.10;99.90;;;;;;5111452;28;20260;-69
2022/08/03 09:02:30;;;;;;;4.03;2.00;;;28.20;99.90;;;;;;5111111;28;20249;-67
2022/08/03 09:05:00;;;;;;;5.97;1.77;;;28.30;99.90;;;;;;5110970;28;20794;-68
2022/08/03 09:07:28;;;;;;;4.03;2.10;;;28.30;99.90;;;;;;5110365;28;20204;-68
2022/08/03 09:09:55;;;;;;;2.23;1.70;;;28.30;99.90;;;;;;5111284;28;20204;-66
2022/08/03 09:12:22;;;;;;;5.57;1.70;;;28.30;99.90;;;;;;5111109;28;20683;-66
2022/08/03 09:14:49;;;;;;;5.47;2.00;;;28.30;99.90;;;;;;5111429;28;20212;-67
2022/08/03 09:17:16;;;;;;;3.47;2.47;;;28.40;99.90;;;;;;5111042;28;20238;-68
2022/08/03 09:19:44;;;;;;;4.40;1.80;;;28.30;99.90;;;;;;5110773;28;20268;-68
2022/08/03 09:22:14;;;;;;;6.03;1.70;;;28.30;99.90;;;;;;5111325;28;20661;-68
2022/08/03 09:24:55;;;;;;;1.87;1.53;;;28.30;99.90;;;;;;5110949;28;20224;-67
2022/08/03 09:27:22;;;;;;;2.63;1.50;;;28.50;99.90;;;;;;5110529;28;20290;-67
2022/08/03 09:29:50;;;;;;;3.23;1.43;;;28.70;99.90;;;;;;5110852;28;20237;-67
2022/08/03 09:32:20;;;;;;;3.93;1.97;;;28.80;99.90;;;;;;5111217;28;20632;-68
2022/08/03 09:34:47;;;;;;;2.70;1.70;;;28.60;99.90;;;;;;5114717;28;20207;-66
2022/08/03 09:37:16;;;;;;;3.33;1.50;;;28.70;99.90;;;;;;5114623;28;20204;-69
2022/08/03 09:39:44;;;;;;;4.70;1.53;;;28.90;99.90;;;;;;5114394;28;20212;-66
2022/08/03 09:42:12;;;;;;;2.60;1.60;;;29.00;99.90;;;;;;5114603;28;20272;-66
2022/08/03 09:44:41;;;;;;;2.57;1.70;;;29.10;99.90;;;;;;5114444;28;20215;-66
2022/08/03 09:47:09;;;;;;;2.30;1.53;;;29.00;99.90;;;;;;5114212;28;20306;-66
2022/08/03 09:49:37;;;;;;;5.93;1.90;;;29.00;99.90;;;;;;5115047;28;20286;-66
2022/08/03 09:52:13;;;;;;;4.20;1.80;;;29.00;99.90;;;;;;5114425;28;20233;-64
2022/08/03 09:54:42;;;;;;;5.50;1.63;;;28.90;99.90;;;;;;5114720;28;20211;-68
2022/08/03 09:57:19;;;;;;;3.13;1.60;;;28.80;99.90;;;;;;5114139;28;20208;-69
2022/08/03 09:59:46;;;;;;;4.07;1.80;;;28.90;99.90;;;;;;5114094;28;20208;-68
2022/08/03 10:02:21;;;;;;;3.97;1.80;;;28.90;99.90;;;;;;5114278;28;20285;-69
2022/08/03 10:04:49;;;;;;;4.43;1.43;;;29.00;99.90;;;;;;5113826;28;20233;-69
2022/08/03 10:07:16;;;;;;;2.10;1.50;;;29.00;99.90;;;;;;5114256;28;20260;-68
2022/08/03 10:09:53;;;;;;;3.37;1.60;;;29.10;99.90;;;;;;5114170;28;20243;-68
2022/08/03 10:12:21;;;;;;;2.92;1.70;;;29.20;99.90;;;;;;5114406;28;20207;-68
2022/08/03 10:14:48;;;;;;;6.45;1.65;;;29.20;99.90;;;;;;5113661;28;20218;-69
2022/08/03 10:17:14;;;;;;;2.35;1.30;;;29.30;99.90;;;;;;5113921;28;20207;-72
2022/08/03 10:19:41;;;;;;;3.30;1.90;;;29.50;99.90;;;;;;5113874;28;20219;-66
2022/08/03 10:22:12;;;;;;;2.85;1.80;;;29.60;99.90;;;;;;5113455;28;20269;-66
2022/08/03 10:24:42;;;;;;;3.55;1.70;;;29.70;99.90;;;;;;5114202;28;20224;-66
2022/08/03 10:27:13;;;;;;;6.57;2.28;;;29.80;99.90;;;;;;5113347;27;20203;-66
2022/08/03 10:29:45;;;;;;;3.55;1.92;;;29.70;99.90;;;;;;5113878;27;20226;-66
2022/08/03 10:32:18;;;;;;;4.20;1.45;;;29.80;99.90;;;;;;5113947;28;20669;-68
2022/08/03 10:34:46;;;;;;;4.10;1.70;;;29.80;99.90;;;;;;5113960;28;20206;-66
2022/08/03 10:37:15;;;;;;;3.33;1.60;;;29.60;99.90;;;;;;5113138;28;20237;-67
2022/08/03 10:39:53;;;;;;;3.33;1.90;;;29.80;99.90;;;;;;5113859;28;20269;-70
2022/08/03 10:42:24;;;;;;;3.08;2.10;;;29.80;99.90;;;;;;5114093;28;20235;-68
2022/08/03 10:45:00;;;;;;;5.57;1.95;;;29.80;99.90;;;;;;5111208;28;20306;-68
2022/08/03 10:47:27;;;;;;;6.72;2.00;;;29.80;99.90;;;;;;5113221;28;20199;-67
2022/08/03 10:49:54;;;;;;;7.65;2.58;;;29.90;99.90;;;;;;5113382;28;20297;-68
2022/08/03 10:52:21;;;;;;;7.65;2.28;;;29.70;99.90;;;;;;5113362;28;20204;-69
2022/08/03 10:57:48;;;;;;;4.18;1.70;;;29.70;99.90;;;;;;5113426;28;20263;-68
2022/08/03 11:00:16;;;;;;;4.45;2.30;;;29.70;99.90;;;;;;5113086;28;20710;-68
2022/08/03 11:03:15;;;;;;;7.45;2.35;;;29.90;99.90;;;;;;5113272;28;20208;-69
2022/08/03 11:05:43;;;;;;;5.25;2.08;;;30.00;99.90;;;;;;5113449;28;20231;-67
2022/08/03 11:08:30;;;;;;;6.43;1.45;;;30.10;99.90;;;;;;5112943;28;20207;-66
2022/08/03 11:10:59;;;;;;;8.63;2.10;;;30.00;99.90;;;;;;5113095;28;20227;-65
2022/08/03 11:13:30;;;;;;;3.75;1.50;;;30.00;99.90;;;;;;5112831;28;20207;-65
2022/08/03 11:15:59;;;;;;;6.05;1.50;;;30.20;99.90;;;;;;5113192;27;20199;-66
2022/08/03 11:18:26;;;;;;;8.75;1.70;;;30.20;99.90;;;;;;5112618;28;20215;-68
2022/08/03 11:20:55;;;;;;;6.25;1.77;;;30.10;99.90;;;;;;5113006;28;20224;-68
2022/08/03 11:23:41;;;;;;;4.65;1.60;;;30.10;99.90;;;;;;5112370;28;20681;-66
2022/08/03 11:26:18;;;;;;;6.13;1.60;;;30.10;99.90;;;;;;5112776;28;20231;-63
2022/08/03 11:28:47;;;;;;;4.20;1.20;;;30.20;99.90;;;;;;5112158;28;20619;-64
2022/08/03 11:31:56;;;;;;;9.15;1.73;;;30.40;99.90;;;;;;5113152;27;20293;-64
2022/08/03 11:34:23;;;;;;;5.53;1.52;;;30.70;99.90;;;;;;5112637;28;20992;-65
2022/08/03 11:37:20;;;;;;;2.83;1.25;;;30.50;99.90;;;;;;5112381;28;20203;-64
2022/08/03 11:39:48;;;;;;;6.32;1.40;;;30.40;99.90;;;;;;5111872;28;20745;-65
2022/08/03 11:42:47;;;;;;;4.75;1.50;;;30.30;99.90;;;;;;5112646;28;20204;-72
2022/08/03 11:45:15;;;;;;;6.35;1.50;;;30.30;99.90;;;;;;5112737;28;20334;-67
2022/08/03 11:47:43;;;;;;;3.22;1.50;;;30.40;99.90;;;;;;5112214;28;20294;-65
2022/08/03 11:50:10;;;;;;;11.93;2.15;;;30.50;99.90;;;;;;5112385;28;20254;-66
2022/08/03 11:52:39;;;;;;;8.18;1.95;;;30.30;99.90;;;;;;5112107;28;20208;-66
2022/08/03 11:55:20;;;;;;;4.80;1.40;;;30.50;99.90;;;;;;5112296;28;20231;-66
2022/08/03 11:57:48;;;;;;;2.97;1.00;;;30.40;99.90;;;;;;5111288;28;20210;-70
2022/08/03 12:00:28;;;;;;;5.40;1.33;;;30.40;99.90;;;;;;5112335;28;20700;-67
2022/08/03 12:03:00;;;;;;;3.08;1.40;;;30.70;99.90;;;;;;5111882;28;20207;-66
2022/08/03 12:05:51;;;;;;;3.47;1.40;;;30.80;99.90;;;;;;5111959;28;20741;-66
2022/08/03 12:08:31;;;;;;;2.90;1.08;;;30.80;99.90;;;;;;5111806;28;20200;-66
2022/08/03 12:10:59;;;;;;;4.78;1.40;;;31.00;99.90;;;;;;5112185;28;20223;-66
2022/08/03 12:13:26;;;;;;;3.65;0.85;;;31.10;99.90;;;;;;5112093;28;20666;-67
2022/08/03 12:15:56;;;;;;;5.25;1.00;;;31.10;99.90;;;;;;5113032;28;20963;-72
2022/08/03 12:18:24;;;;;;;3.83;1.30;;;31.10;99.90;;;;;;5112441;28;20249;-73
2022/08/03 12:20:53;;;;;;;3.55;1.48;;;31.20;99.90;;;;;;5111964;28;20657;-74
2022/08/03 12:23:20;;;;;;;2.35;1.25;;;31.00;99.90;;;;;;5112103;28;20199;-71
2022/08/03 12:25:47;;;;;;;3.03;0.93;;;31.10;99.90;;;;;;5111494;28;20231;-70
2022/08/03 12:28:17;;;;;;;3.80;1.17;;;31.00;99.90;;;;;;5111406;28;20260;-66
2022/08/03 12:30:46;;;;;;;3.42;1.02;;;31.20;99.90;;;;;;5111463;28;20219;-66
2022/08/03 12:33:20;;;;;;;3.30;1.10;;;31.20;99.90;;;;;;5111748;28;20215;-64
2022/08/03 12:35:49;;;;;;;2.15;1.10;;;31.20;99.90;;;;;;5111718;28;20216;-65
2022/08/03 12:38:21;;;;;;;5.47;1.20;;;31.20;99.90;;;;;;5110893;28;20204;-65
2022/08/03 12:41:04;;;;;;;9.18;5.10;;;31.20;99.90;;;;;;5111259;28;20285;-66
2022/08/03 12:43:32;;;;;;;33.65;23.60;;;31.30;99.90;;;;;;5109710;28;20199;-67
2022/08/03 12:46:13;;;;;;;2.20;1.33;;;31.40;99.90;;;;;;5111713;28;20223;-68
2022/08/03 12:49:05;;;;;;;2.30;1.00;;;31.40;99.90;;;;;;5111207;28;20207;-67
2022/08/03 12:51:34;;;;;;;3.28;1.02;;;31.40;99.90;;;;;;5112799;28;20296;-65
2022/08/03 12:54:02;;;;;;;5.25;1.13;;;31.20;99.90;;;;;;5112840;28;20203;-68
2022/08/03 12:56:29;;;;;;;1.75;1.00;;;31.10;99.90;;;;;;5111893;28;20199;-66
2022/08/03 12:58:55;;;;;;;4.78;1.20;;;31.10;99.90;;;;;;5111240;28;20257;-70
2022/08/03 13:01:23;;;;;;;3.88;1.00;;;30.90;99.90;;;;;;5111483;28;20235;-68
2022/08/03 13:03:51;;;;;;;2.67;0.98;;;31.10;99.90;;;;;;5111196;28;20295;-65
2022/08/03 13:06:22;;;;;;;2.50;1.00;;;31.20;99.90;;;;;;5110982;28;20227;-65
2022/08/03 13:08:50;;;;;;;4.18;1.13;;;31.30;99.90;;;;;;5113856;28;20718;-66
2022/08/03 13:11:21;;;;;;;2.03;0.85;;;31.20;99.90;;;;;;5116170;28;20292;-68